sensor_id;sensor_type;location;lat;lon;timestamp;P1;durP1;ratioP1;P2;durP2;ratioP2
50341;SDS011;76053;42.682;23.286;2024-01-30T00:02:43;1999.90;;;905.38;;
50341;SDS011;76053;42.682;23.286;2024-01-30T00:05:45;1999.90;;;999.90;;
50341;SDS011;76053;42.682;23.286;2024-01-30T00:08:46;1919.43;;;891.25;;
50341;SDS011;76053;42.682;23.286;2024-01-30T00:11:48;1395.28;;;747.40;;
50341;SDS011;76053;42.682;23.286;2024-01-30T00:14:49;1201.45;;;677.35;;
50341;SDS011;76053;42.682;23.286;2024-01-30T00:17:49;1480.68;;;807.83;;
50341;SDS011;76053;42.682;23.286;2024-01-30T00:20:52;1232.57;;;693.22;;
50341;SDS011;76053;42.682;23.286;2024-01-30T00:23:52;1035.88;;;611.53;;
50341;SDS011;76053;42.682;23.286;2024-01-30T00:26:53;908.28;;;552.13;;
50341;SDS011;76053;42.682;23.286;2024-01-30T00:29:53;822.92;;;501.38;;
50341;SDS011;76053;42.682;23.286;2024-01-30T00:32:54;704.20;;;439.02;;
50341;SDS011;76053;42.682;23.286;2024-01-30T00:35:54;611.53;;;376.58;;
50341;SDS011;76053;42.682;23.286;2024-01-30T00:38:55;519.78;;;326.40;;
50341;SDS011;76053;42.682;23.286;2024-01-30T00:41:55;416.17;;;250.32;;
50341;SDS011;76053;42.682;23.286;2024-01-30T00:44:56;362.20;;;219.27;;
50341;SDS011;76053;42.682;23.286;2024-01-30T00:47:56;271.75;;;167.02;;
50341;SDS011;76053;42.682;23.286;2024-01-30T00:50:57;186.52;;;117.53;;
50341;SDS011;76053;42.682;23.286;2024-01-30T00:53:57;118.70;;;75.30;;
50341;SDS011;76053;42.682;23.286;2024-01-30T00:56:58;77.07;;;50.28;;
50341;SDS011;76053;42.682;23.286;2024-01-30T00:59:58;39.63;;;32.30;;
50341;SDS011;76053;42.682;23.286;2024-01-30T01:02:59;25.10;;;21.13;;
50341;SDS011;76053;42.682;23.286;2024-01-30T01:05:59;19.90;;;18.00;;
50341;SDS011;76053;42.682;23.286;2024-01-30T01:09:00;14.98;;;13.60;;
50341;SDS011;76053;42.682;23.286;2024-01-30T01:12:01;14.77;;;13.25;;
50341;SDS011;76053;42.682;23.286;2024-01-30T01:15:02;12.10;;;11.07;;
50341;SDS011;76053;42.682;23.286;2024-01-30T01:18:03;10.35;;;9.45;;
50341;SDS011;76053;42.682;23.286;2024-01-30T01:21:04;9.57;;;8.77;;
50341;SDS011;76053;42.682;23.286;2024-01-30T01:24:05;8.95;;;8.15;;
50341;SDS011;76053;42.682;23.286;2024-01-30T01:27:05;8.60;;;7.80;;
50341;SDS011;76053;42.682;23.286;2024-01-30T01:30:07;7.90;;;7.15;;
50341;SDS011;76053;42.682;23.286;2024-01-30T01:33:09;7.38;;;6.45;;
50341;SDS011;76053;42.682;23.286;2024-01-30T01:36:10;7.18;;;6.47;;
50341;SDS011;76053;42.682;23.286;2024-01-30T01:39:10;5.82;;;5.32;;
50341;SDS011;76053;42.682;23.286;2024-01-30T01:42:11;5.88;;;5.30;;
50341;SDS011;76053;42.682;23.286;2024-01-30T01:45:11;6.82;;;6.20;;
50341;SDS011;76053;42.682;23.286;2024-01-30T01:48:12;5.45;;;4.95;;
50341;SDS011;76053;42.682;23.286;2024-01-30T01:51:13;5.80;;;5.28;;
50341;SDS011;76053;42.682;23.286;2024-01-30T01:54:14;6.10;;;5.60;;
50341;SDS011;76053;42.682;23.286;2024-01-30T01:57:15;5.32;;;4.88;;
50341;SDS011;76053;42.682;23.286;2024-01-30T02:00:16;4.43;;;4.03;;
50341;SDS011;76053;42.682;23.286;2024-01-30T02:03:17;4.50;;;4.10;;
50341;SDS011;76053;42.682;23.286;2024-01-30T02:06:21;3.97;;;3.58;;
50341;SDS011;76053;42.682;23.286;2024-01-30T02:09:22;4.40;;;4.00;;
50341;SDS011;76053;42.682;23.286;2024-01-30T02:12:22;4.10;;;3.40;;
50341;SDS011;76053;42.682;23.286;2024-01-30T02:15:22;3.67;;;3.38;;
50341;SDS011;76053;42.682;23.286;2024-01-30T02:18:23;3.70;;;3.38;;
50341;SDS011;76053;42.682;23.286;2024-01-30T02:21:23;4.07;;;3.67;;
50341;SDS011;76053;42.682;23.286;2024-01-30T02:24:24;4.22;;;3.83;;
50341;SDS011;76053;42.682;23.286;2024-01-30T02:27:25;3.40;;;3.10;;
50341;SDS011;76053;42.682;23.286;2024-01-30T02:30:25;3.47;;;3.17;;
50341;SDS011;76053;42.682;23.286;2024-01-30T02:33:26;3.50;;;3.20;;
50341;SDS011;76053;42.682;23.286;2024-01-30T02:36:26;2.97;;;2.78;;
50341;SDS011;76053;42.682;23.286;2024-01-30T02:39:27;2.67;;;2.47;;
50341;SDS011;76053;42.682;23.286;2024-01-30T02:42:27;2.95;;;2.65;;
50341;SDS011;76053;42.682;23.286;2024-01-30T02:45:28;2.58;;;1.85;;
50341;SDS011;76053;42.682;23.286;2024-01-30T02:48:28;2.92;;;2.40;;
50341;SDS011;76053;42.682;23.286;2024-01-30T02:51:28;2.92;;;2.65;;
50341;SDS011;76053;42.682;23.286;2024-01-30T02:54:29;2.80;;;2.50;;
50341;SDS011;76053;42.682;23.286;2024-01-30T02:57:30;2.17;;;1.95;;
50341;SDS011;76053;42.682;23.286;2024-01-30T03:00:31;2.70;;;2.30;;
50341;SDS011;76053;42.682;23.286;2024-01-30T03:03:31;3.13;;;2.83;;
50341;SDS011;76053;42.682;23.286;2024-01-30T03:06:32;1.85;;;1.65;;
50341;SDS011;76053;42.682;23.286;2024-01-30T03:09:32;2.10;;;1.90;;
50341;SDS011;76053;42.682;23.286;2024-01-30T03:12:33;2.75;;;2.40;;
50341;SDS011;76053;42.682;23.286;2024-01-30T03:15:33;2.80;;;2.60;;
50341;SDS011;76053;42.682;23.286;2024-01-30T03:18:34;2.80;;;2.50;;
50341;SDS011;76053;42.682;23.286;2024-01-30T03:21:35;4.18;;;2.55;;
50341;SDS011;76053;42.682;23.286;2024-01-30T03:24:35;2.55;;;2.35;;
50341;SDS011;76053;42.682;23.286;2024-01-30T03:27:36;2.95;;;1.83;;
50341;SDS011;76053;42.682;23.286;2024-01-30T03:30:36;2.47;;;1.83;;
50341;SDS011;76053;42.682;23.286;2024-01-30T03:33:37;2.60;;;2.33;;
50341;SDS011;76053;42.682;23.286;2024-01-30T03:36:38;2.58;;;2.35;;
50341;SDS011;76053;42.682;23.286;2024-01-30T03:39:38;2.28;;;2.08;;
50341;SDS011;76053;42.682;23.286;2024-01-30T03:42:39;2.35;;;2.15;;
50341;SDS011;76053;42.682;23.286;2024-01-30T03:45:39;2.33;;;2.13;;
50341;SDS011;76053;42.682;23.286;2024-01-30T03:48:39;3.40;;;2.30;;
50341;SDS011;76053;42.682;23.286;2024-01-30T03:51:40;2.17;;;1.95;;
50341;SDS011;76053;42.682;23.286;2024-01-30T03:54:40;2.22;;;2.03;;
50341;SDS011;76053;42.682;23.286;2024-01-30T03:57:41;2.03;;;1.83;;
50341;SDS011;76053;42.682;23.286;2024-01-30T04:00:41;2.45;;;2.03;;
50341;SDS011;76053;42.682;23.286;2024-01-30T04:03:42;2.83;;;2.10;;
50341;SDS011;76053;42.682;23.286;2024-01-30T04:06:44;2.10;;;1.92;;
50341;SDS011;76053;42.682;23.286;2024-01-30T04:09:45;2.28;;;2.08;;
50341;SDS011;76053;42.682;23.286;2024-01-30T04:12:45;2.20;;;2.00;;
50341;SDS011;76053;42.682;23.286;2024-01-30T04:15:46;2.05;;;1.85;;
50341;SDS011;76053;42.682;23.286;2024-01-30T04:18:46;2.13;;;1.77;;
50341;SDS011;76053;42.682;23.286;2024-01-30T04:21:47;1.98;;;1.80;;
50341;SDS011;76053;42.682;23.286;2024-01-30T04:24:47;1.55;;;1.40;;
50341;SDS011;76053;42.682;23.286;2024-01-30T04:27:48;1.10;;;1.00;;
50341;SDS011;76053;42.682;23.286;2024-01-30T04:30:48;1.77;;;1.13;;
50341;SDS011;76053;42.682;23.286;2024-01-30T04:33:49;1.70;;;1.13;;
50341;SDS011;76053;42.682;23.286;2024-01-30T04:36:49;2.05;;;1.65;;
50341;SDS011;76053;42.682;23.286;2024-01-30T04:39:50;2.03;;;1.63;;
50341;SDS011;76053;42.682;23.286;2024-01-30T04:42:51;1.80;;;1.17;;
50341;SDS011;76053;42.682;23.286;2024-01-30T04:45:51;2.38;;;2.00;;
50341;SDS011;76053;42.682;23.286;2024-01-30T04:48:52;2.00;;;1.77;;
50341;SDS011;76053;42.682;23.286;2024-01-30T04:51:52;1.70;;;1.02;;
50341;SDS011;76053;42.682;23.286;2024-01-30T04:54:53;1.45;;;1.27;;
50341;SDS011;76053;42.682;23.286;2024-01-30T04:57:53;1.27;;;0.88;;
50341;SDS011;76053;42.682;23.286;2024-01-30T05:00:53;1.92;;;1.60;;
50341;SDS011;76053;42.682;23.286;2024-01-30T05:03:54;2.20;;;1.77;;
50341;SDS011;76053;42.682;23.286;2024-01-30T05:06:54;2.92;;;1.73;;
50341;SDS011;76053;42.682;23.286;2024-01-30T05:09:55;2.97;;;1.73;;
50341;SDS011;76053;42.682;23.286;2024-01-30T05:12:55;2.38;;;1.70;;
50341;SDS011;76053;42.682;23.286;2024-01-30T05:15:56;2.17;;;1.83;;
50341;SDS011;76053;42.682;23.286;2024-01-30T05:18:56;1.63;;;1.35;;
50341;SDS011;76053;42.682;23.286;2024-01-30T05:21:57;1.58;;;1.48;;
50341;SDS011;76053;42.682;23.286;2024-01-30T05:24:57;1.77;;;1.42;;
50341;SDS011;76053;42.682;23.286;2024-01-30T05:27:58;2.00;;;1.30;;
50341;SDS011;76053;42.682;23.286;2024-01-30T05:30:58;1.83;;;1.52;;
50341;SDS011;76053;42.682;23.286;2024-01-30T05:33:59;2.45;;;1.08;;
50341;SDS011;76053;42.682;23.286;2024-01-30T05:37:01;1.60;;;1.20;;
50341;SDS011;76053;42.682;23.286;2024-01-30T05:40:01;1.55;;;1.27;;
50341;SDS011;76053;42.682;23.286;2024-01-30T05:43:02;1.80;;;1.38;;
50341;SDS011;76053;42.682;23.286;2024-01-30T05:46:03;1.83;;;1.30;;
50341;SDS011;76053;42.682;23.286;2024-01-30T05:49:03;2.05;;;1.42;;
50341;SDS011;76053;42.682;23.286;2024-01-30T05:52:04;1.60;;;1.13;;
50341;SDS011;76053;42.682;23.286;2024-01-30T05:55:05;2.28;;;1.42;;
50341;SDS011;76053;42.682;23.286;2024-01-30T05:58:06;1.55;;;1.13;;
50341;SDS011;76053;42.682;23.286;2024-01-30T06:01:06;1.90;;;1.70;;
50341;SDS011;76053;42.682;23.286;2024-01-30T06:04:08;1.20;;;1.10;;
50341;SDS011;76053;42.682;23.286;2024-01-30T06:07:09;1.35;;;1.15;;
50341;SDS011;76053;42.682;23.286;2024-01-30T06:10:09;2.00;;;1.58;;
50341;SDS011;76053;42.682;23.286;2024-01-30T06:13:09;1.40;;;1.20;;
50341;SDS011;76053;42.682;23.286;2024-01-30T06:16:10;1.75;;;1.45;;
50341;SDS011;76053;42.682;23.286;2024-01-30T06:19:11;1.85;;;1.10;;
50341;SDS011;76053;42.682;23.286;2024-01-30T06:22:12;2.35;;;1.50;;
50341;SDS011;76053;42.682;23.286;2024-01-30T06:25:12;2.55;;;1.33;;
50341;SDS011;76053;42.682;23.286;2024-01-30T06:28:13;1.63;;;1.48;;
50341;SDS011;76053;42.682;23.286;2024-01-30T06:31:13;2.53;;;1.65;;
50341;SDS011;76053;42.682;23.286;2024-01-30T06:34:14;1.98;;;1.48;;
50341;SDS011;76053;42.682;23.286;2024-01-30T06:37:14;2.53;;;1.55;;
50341;SDS011;76053;42.682;23.286;2024-01-30T06:40:15;1.88;;;1.70;;
50341;SDS011;76053;42.682;23.286;2024-01-30T06:43:15;1.50;;;1.38;;
50341;SDS011;76053;42.682;23.286;2024-01-30T06:46:16;1.83;;;1.35;;
50341;SDS011;76053;42.682;23.286;2024-01-30T06:49:17;1.90;;;1.65;;
50341;SDS011;76053;42.682;23.286;2024-01-30T06:52:17;1.58;;;1.42;;
50341;SDS011;76053;42.682;23.286;2024-01-30T06:55:18;1.73;;;1.15;;
50341;SDS011;76053;42.682;23.286;2024-01-30T06:58:18;1.35;;;0.85;;
50341;SDS011;76053;42.682;23.286;2024-01-30T07:01:19;1.45;;;1.17;;
50341;SDS011;76053;42.682;23.286;2024-01-30T07:04:19;1.30;;;0.77;;
50341;SDS011;76053;42.682;23.286;2024-01-30T07:07:20;2.05;;;1.63;;
50341;SDS011;76053;42.682;23.286;2024-01-30T07:10:20;1.73;;;1.30;;
50341;SDS011;76053;42.682;23.286;2024-01-30T07:13:21;1.40;;;0.90;;
50341;SDS011;76053;42.682;23.286;2024-01-30T07:16:21;1.50;;;1.30;;
50341;SDS011;76053;42.682;23.286;2024-01-30T07:19:23;1.80;;;0.95;;
50341;SDS011;76053;42.682;23.286;2024-01-30T07:22:23;1.48;;;1.08;;
50341;SDS011;76053;42.682;23.286;2024-01-30T07:25:24;1.88;;;1.17;;
50341;SDS011;76053;42.682;23.286;2024-01-30T07:28:27;2.00;;;0.80;;
50341;SDS011;76053;42.682;23.286;2024-01-30T07:31:27;3.95;;;0.90;;
50341;SDS011;76053;42.682;23.286;2024-01-30T07:34:28;1.77;;;1.02;;
50341;SDS011;76053;42.682;23.286;2024-01-30T07:37:28;4.57;;;0.93;;
50341;SDS011;76053;42.682;23.286;2024-01-30T07:40:29;2.33;;;1.20;;
50341;SDS011;76053;42.682;23.286;2024-01-30T07:43:30;1.35;;;0.85;;
50341;SDS011;76053;42.682;23.286;2024-01-30T07:46:30;2.08;;;1.52;;
50341;SDS011;76053;42.682;23.286;2024-01-30T07:49:31;1.35;;;0.90;;
50341;SDS011;76053;42.682;23.286;2024-01-30T07:52:34;1.45;;;1.15;;
50341;SDS011;76053;42.682;23.286;2024-01-30T07:55:35;1.45;;;1.13;;
50341;SDS011;76053;42.682;23.286;2024-01-30T07:58:35;2.38;;;0.90;;
50341;SDS011;76053;42.682;23.286;2024-01-30T08:01:36;2.67;;;0.80;;
50341;SDS011;76053;42.682;23.286;2024-01-30T08:04:36;1.98;;;0.60;;
50341;SDS011;76053;42.682;23.286;2024-01-30T08:07:37;1.90;;;1.05;;
50341;SDS011;76053;42.682;23.286;2024-01-30T08:10:37;1.40;;;0.85;;
50341;SDS011;76053;42.682;23.286;2024-01-30T08:13:38;1.67;;;0.80;;
50341;SDS011;76053;42.682;23.286;2024-01-30T08:16:38;1.23;;;0.95;;
50341;SDS011;76053;42.682;23.286;2024-01-30T08:19:39;1.17;;;0.75;;
50341;SDS011;76053;42.682;23.286;2024-01-30T08:22:39;1.65;;;1.15;;
50341;SDS011;76053;42.682;23.286;2024-01-30T08:25:40;1.98;;;0.90;;
50341;SDS011;76053;42.682;23.286;2024-01-30T08:28:41;1.30;;;0.82;;
50341;SDS011;76053;42.682;23.286;2024-01-30T08:31:41;1.63;;;1.13;;
50341;SDS011;76053;42.682;23.286;2024-01-30T08:34:42;2.20;;;1.30;;
50341;SDS011;76053;42.682;23.286;2024-01-30T08:37:42;1.48;;;0.85;;
50341;SDS011;76053;42.682;23.286;2024-01-30T08:40:43;1.48;;;0.85;;
50341;SDS011;76053;42.682;23.286;2024-01-30T08:43:43;2.10;;;1.10;;
50341;SDS011;76053;42.682;23.286;2024-01-30T08:46:44;2.70;;;0.70;;
50341;SDS011;76053;42.682;23.286;2024-01-30T08:49:45;1.95;;;0.70;;
50341;SDS011;76053;42.682;23.286;2024-01-30T08:52:46;1.50;;;0.93;;
50341;SDS011;76053;42.682;23.286;2024-01-30T08:55:46;1999.90;;;999.90;;
50341;SDS011;76053;42.682;23.286;2024-01-30T08:58:47;327.00;;;277.67;;
50341;SDS011;76053;42.682;23.286;2024-01-30T09:01:47;15.40;;;10.73;;
50341;SDS011;76053;42.682;23.286;2024-01-30T09:04:48;2.13;;;1.58;;
50341;SDS011;76053;42.682;23.286;2024-01-30T09:07:48;3.53;;;1.92;;
50341;SDS011;76053;42.682;23.286;2024-01-30T09:10:49;2.08;;;1.65;;
50341;SDS011;76053;42.682;23.286;2024-01-30T09:13:50;2.42;;;1.50;;
50341;SDS011;76053;42.682;23.286;2024-01-30T09:16:51;1.65;;;1.00;;
50341;SDS011;76053;42.682;23.286;2024-01-30T09:19:51;2.13;;;1.48;;
50341;SDS011;76053;42.682;23.286;2024-01-30T09:22:51;4.25;;;1.63;;
50341;SDS011;76053;42.682;23.286;2024-01-30T09:25:52;1.85;;;0.93;;
50341;SDS011;76053;42.682;23.286;2024-01-30T09:28:52;4.78;;;1.02;;
50341;SDS011;76053;42.682;23.286;2024-01-30T09:31:53;3.15;;;1.40;;
50341;SDS011;76053;42.682;23.286;2024-01-30T09:34:54;3.15;;;1.23;;
50341;SDS011;76053;42.682;23.286;2024-01-30T09:37:54;4.70;;;1.40;;
50341;SDS011;76053;42.682;23.286;2024-01-30T09:40:55;3.60;;;1.10;;
50341;SDS011;76053;42.682;23.286;2024-01-30T09:43:58;1.67;;;1.38;;
50341;SDS011;76053;42.682;23.286;2024-01-30T09:47:00;3.15;;;1.33;;
50341;SDS011;76053;42.682;23.286;2024-01-30T09:50:03;2.05;;;1.42;;
50341;SDS011;76053;42.682;23.286;2024-01-30T09:53:06;2.72;;;1.75;;
50341;SDS011;76053;42.682;23.286;2024-01-30T09:56:08;3.17;;;1.75;;
50341;SDS011;76053;42.682;23.286;2024-01-30T09:59:09;3.78;;;2.25;;
50341;SDS011;76053;42.682;23.286;2024-01-30T10:02:09;4.18;;;2.55;;
50341;SDS011;76053;42.682;23.286;2024-01-30T10:05:10;5.72;;;2.83;;
50341;SDS011;76053;42.682;23.286;2024-01-30T10:08:15;6.55;;;1.80;;
50341;SDS011;76053;42.682;23.286;2024-01-30T10:11:19;3.22;;;2.38;;
50341;SDS011;76053;42.682;23.286;2024-01-30T10:14:19;462.15;;;413.13;;
50341;SDS011;76053;42.682;23.286;2024-01-30T10:17:20;561.40;;;495.55;;
50341;SDS011;76053;42.682;23.286;2024-01-30T10:20:21;286.83;;;227.07;;
50341;SDS011;76053;42.682;23.286;2024-01-30T10:23:22;85.85;;;59.38;;
50341;SDS011;76053;42.682;23.286;2024-01-30T10:26:22;17.60;;;11.48;;
50341;SDS011;76053;42.682;23.286;2024-01-30T10:29:23;7.60;;;4.32;;
50341;SDS011;76053;42.682;23.286;2024-01-30T10:32:23;5.18;;;3.15;;
50341;SDS011;76053;42.682;23.286;2024-01-30T10:35:27;5.13;;;2.30;;
50341;SDS011;76053;42.682;23.286;2024-01-30T10:38:31;3.03;;;2.03;;
50341;SDS011;76053;42.682;23.286;2024-01-30T10:41:33;3.20;;;2.17;;
50341;SDS011;76053;42.682;23.286;2024-01-30T10:44:55;2.60;;;1.70;;
50341;SDS011;76053;42.682;23.286;2024-01-30T10:47:57;4.60;;;1.50;;
50341;SDS011;76053;42.682;23.286;2024-01-30T10:51:02;513.08;;;437.80;;
50341;SDS011;76053;42.682;23.286;2024-01-30T10:54:04;910.00;;;720.08;;
50341;SDS011;76053;42.682;23.286;2024-01-30T10:57:05;384.83;;;293.48;;
50341;SDS011;76053;42.682;23.286;2024-01-30T11:00:07;783.70;;;645.38;;
50341;SDS011;76053;42.682;23.286;2024-01-30T11:03:12;972.22;;;721.00;;
50341;SDS011;76053;42.682;23.286;2024-01-30T11:06:13;1516.65;;;923.08;;
50341;SDS011;76053;42.682;23.286;2024-01-30T11:09:18;789.15;;;605.78;;
50341;SDS011;76053;42.682;23.286;2024-01-30T11:12:21;670.97;;;531.58;;
50341;SDS011;76053;42.682;23.286;2024-01-30T11:15:23;505.90;;;372.10;;
50341;SDS011;76053;42.682;23.286;2024-01-30T11:18:24;429.23;;;303.33;;
50341;SDS011;76053;42.682;23.286;2024-01-30T11:21:26;1565.88;;;899.67;;
50341;SDS011;76053;42.682;23.286;2024-01-30T11:24:27;1329.45;;;857.88;;
50341;SDS011;76053;42.682;23.286;2024-01-30T11:27:27;1102.57;;;773.25;;
50341;SDS011;76053;42.682;23.286;2024-01-30T11:30:29;997.75;;;713.80;;
50341;SDS011;76053;42.682;23.286;2024-01-30T11:33:30;750.25;;;567.88;;
50341;SDS011;76053;42.682;23.286;2024-01-30T11:36:31;669.88;;;492.45;;
50341;SDS011;76053;42.682;23.286;2024-01-30T11:39:34;918.90;;;679.47;;
50341;SDS011;76053;42.682;23.286;2024-01-30T11:42:36;632.67;;;472.95;;
50341;SDS011;76053;42.682;23.286;2024-01-30T11:45:39;461.17;;;328.88;;
50341;SDS011;76053;42.682;23.286;2024-01-30T11:48:40;420.95;;;291.33;;
50341;SDS011;76053;42.682;23.286;2024-01-30T11:51:41;331.63;;;224.13;;
50341;SDS011;76053;42.682;23.286;2024-01-30T11:54:42;241.40;;;155.18;;
50341;SDS011;76053;42.682;23.286;2024-01-30T11:57:43;155.50;;;100.03;;
50341;SDS011;76053;42.682;23.286;2024-01-30T12:00:52;89.45;;;52.28;;
50341;SDS011;76053;42.682;23.286;2024-01-30T12:03:55;41.72;;;25.40;;
50341;SDS011;76053;42.682;23.286;2024-01-30T12:06:57;22.35;;;13.90;;
50341;SDS011;76053;42.682;23.286;2024-01-30T12:09:57;1122.90;;;727.53;;
50341;SDS011;76053;42.682;23.286;2024-01-30T12:12:58;913.22;;;655.35;;
50341;SDS011;76053;42.682;23.286;2024-01-30T12:16:02;1564.35;;;902.70;;
50341;SDS011;76053;42.682;23.286;2024-01-30T12:19:02;1010.70;;;678.25;;
50341;SDS011;76053;42.682;23.286;2024-01-30T12:22:03;546.72;;;382.60;;
50341;SDS011;76053;42.682;23.286;2024-01-30T12:25:10;415.20;;;274.15;;
50341;SDS011;76053;42.682;23.286;2024-01-30T12:28:11;814.58;;;655.97;;
50341;SDS011;76053;42.682;23.286;2024-01-30T12:31:13;965.90;;;714.42;;
50341;SDS011;76053;42.682;23.286;2024-01-30T12:34:14;513.40;;;384.80;;
50341;SDS011;76053;42.682;23.286;2024-01-30T12:37:17;1203.25;;;835.35;;
50341;SDS011;76053;42.682;23.286;2024-01-30T12:40:21;1121.97;;;798.63;;
50341;SDS011;76053;42.682;23.286;2024-01-30T12:43:24;906.40;;;675.17;;
50341;SDS011;76053;42.682;23.286;2024-01-30T12:46:27;643.33;;;490.63;;
50341;SDS011;76053;42.682;23.286;2024-01-30T12:49:28;600.53;;;459.27;;
50341;SDS011;76053;42.682;23.286;2024-01-30T12:52:29;479.58;;;358.08;;
50341;SDS011;76053;42.682;23.286;2024-01-30T12:55:30;411.25;;;293.30;;
50341;SDS011;76053;42.682;23.286;2024-01-30T12:58:32;281.42;;;185.10;;
50341;SDS011;76053;42.682;23.286;2024-01-30T13:01:33;202.32;;;126.03;;
50341;SDS011;76053;42.682;23.286;2024-01-30T13:04:34;125.78;;;76.93;;
50341;SDS011;76053;42.682;23.286;2024-01-30T13:07:37;74.32;;;40.45;;
50341;SDS011;76053;42.682;23.286;2024-01-30T13:10:37;28.58;;;17.63;;
50341;SDS011;76053;42.682;23.286;2024-01-30T13:13:38;15.20;;;9.07;;
50341;SDS011;76053;42.682;23.286;2024-01-30T13:16:38;9.18;;;6.35;;
50341;SDS011;76053;42.682;23.286;2024-01-30T13:19:39;6.75;;;5.03;;
50341;SDS011;76053;42.682;23.286;2024-01-30T13:22:39;4.88;;;4.38;;
50341;SDS011;76053;42.682;23.286;2024-01-30T13:25:40;4.40;;;4.00;;
50341;SDS011;76053;42.682;23.286;2024-01-30T13:28:40;4.20;;;3.08;;
50341;SDS011;76053;42.682;23.286;2024-01-30T13:31:41;1211.45;;;893.85;;
50341;SDS011;76053;42.682;23.286;2024-01-30T13:34:41;1370.45;;;902.70;;
50341;SDS011;76053;42.682;23.286;2024-01-30T13:37:43;555.65;;;466.40;;
50341;SDS011;76053;42.682;23.286;2024-01-30T13:40:43;1236.93;;;837.60;;
50341;SDS011;76053;42.682;23.286;2024-01-30T13:43:44;1363.63;;;885.58;;
50341;SDS011;76053;42.682;23.286;2024-01-30T13:46:44;882.38;;;691.67;;
50341;SDS011;76053;42.682;23.286;2024-01-30T13:49:46;593.05;;;481.63;;
50341;SDS011;76053;42.682;23.286;2024-01-30T13:52:46;563.70;;;447.38;;
50341;SDS011;76053;42.682;23.286;2024-01-30T13:55:47;500.50;;;388.38;;
50341;SDS011;76053;42.682;23.286;2024-01-30T13:58:48;809.55;;;648.70;;
50341;SDS011;76053;42.682;23.286;2024-01-30T14:01:49;1504.35;;;927.38;;
50341;SDS011;76053;42.682;23.286;2024-01-30T14:04:51;807.05;;;636.78;;
50341;SDS011;76053;42.682;23.286;2024-01-30T14:07:51;1004.35;;;741.75;;
50341;SDS011;76053;42.682;23.286;2024-01-30T14:10:52;765.45;;;598.63;;
50341;SDS011;76053;42.682;23.286;2024-01-30T14:13:52;1583.57;;;957.33;;
50341;SDS011;76053;42.682;23.286;2024-01-30T14:16:53;1204.00;;;823.47;;
50341;SDS011;76053;42.682;23.286;2024-01-30T14:19:53;1082.20;;;772.03;;
50341;SDS011;76053;42.682;23.286;2024-01-30T14:22:54;1772.53;;;987.95;;
50341;SDS011;76053;42.682;23.286;2024-01-30T14:25:55;1099.15;;;771.13;;
50341;SDS011;76053;42.682;23.286;2024-01-30T14:28:58;945.70;;;692.05;;
50341;SDS011;76053;42.682;23.286;2024-01-30T14:31:58;868.38;;;643.30;;
50341;SDS011;76053;42.682;23.286;2024-01-30T14:34:59;762.90;;;574.50;;
50341;SDS011;76053;42.682;23.286;2024-01-30T14:37:59;671.10;;;502.02;;
50341;SDS011;76053;42.682;23.286;2024-01-30T14:41:01;596.33;;;442.80;;
50341;SDS011;76053;42.682;23.286;2024-01-30T14:44:01;511.15;;;378.75;;
50341;SDS011;76053;42.682;23.286;2024-01-30T14:47:02;405.27;;;280.27;;
50341;SDS011;76053;42.682;23.286;2024-01-30T14:50:02;298.98;;;205.90;;
50341;SDS011;76053;42.682;23.286;2024-01-30T14:53:05;199.98;;;136.10;;
50341;SDS011;76053;42.682;23.286;2024-01-30T14:56:05;134.98;;;88.72;;
50341;SDS011;76053;42.682;23.286;2024-01-30T14:59:06;73.40;;;44.88;;
50341;SDS011;76053;42.682;23.286;2024-01-30T15:02:07;994.92;;;771.05;;
50341;SDS011;76053;42.682;23.286;2024-01-30T15:05:07;1999.90;;;998.95;;
50341;SDS011;76053;42.682;23.286;2024-01-30T15:08:10;822.55;;;590.75;;
50341;SDS011;76053;42.682;23.286;2024-01-30T15:11:11;519.28;;;380.42;;
50341;SDS011;76053;42.682;23.286;2024-01-30T15:14:11;488.48;;;352.77;;
50341;SDS011;76053;42.682;23.286;2024-01-30T15:17:12;437.48;;;303.83;;
50341;SDS011;76053;42.682;23.286;2024-01-30T15:20:15;320.40;;;207.23;;
50341;SDS011;76053;42.682;23.286;2024-01-30T15:23:17;989.63;;;729.20;;
50341;SDS011;76053;42.682;23.286;2024-01-30T15:26:18;509.45;;;385.73;;
50341;SDS011;76053;42.682;23.286;2024-01-30T15:29:18;334.27;;;232.40;;
50341;SDS011;76053;42.682;23.286;2024-01-30T15:32:21;1048.10;;;781.72;;
50341;SDS011;76053;42.682;23.286;2024-01-30T15:35:21;598.63;;;487.83;;
50341;SDS011;76053;42.682;23.286;2024-01-30T15:38:24;348.90;;;260.15;;
50341;SDS011;76053;42.682;23.286;2024-01-30T15:41:25;183.93;;;132.15;;
50341;SDS011;76053;42.682;23.286;2024-01-30T15:44:25;1802.55;;;999.42;;
50341;SDS011;76053;42.682;23.286;2024-01-30T15:47:26;1078.78;;;781.88;;
50341;SDS011;76053;42.682;23.286;2024-01-30T15:50:26;470.80;;;372.10;;
50341;SDS011;76053;42.682;23.286;2024-01-30T15:53:27;356.42;;;268.88;;
50341;SDS011;76053;42.682;23.286;2024-01-30T15:56:28;214.07;;;159.98;;
50341;SDS011;76053;42.682;23.286;2024-01-30T15:59:28;157.15;;;109.05;;
50341;SDS011;76053;42.682;23.286;2024-01-30T16:02:29;829.83;;;703.50;;
50341;SDS011;76053;42.682;23.286;2024-01-30T16:05:29;1003.75;;;747.72;;
50341;SDS011;76053;42.682;23.286;2024-01-30T16:08:29;1494.40;;;897.60;;
50341;SDS011;76053;42.682;23.286;2024-01-30T16:11:30;966.10;;;693.33;;
50341;SDS011;76053;42.682;23.286;2024-01-30T16:14:32;531.55;;;403.77;;
50341;SDS011;76053;42.682;23.286;2024-01-30T16:17:33;294.73;;;204.50;;
50341;SDS011;76053;42.682;23.286;2024-01-30T16:20:34;861.08;;;666.00;;
50341;SDS011;76053;42.682;23.286;2024-01-30T16:23:34;463.30;;;357.15;;
50341;SDS011;76053;42.682;23.286;2024-01-30T16:26:35;161.05;;;109.55;;
50341;SDS011;76053;42.682;23.286;2024-01-30T16:29:35;49.55;;;31.48;;
50341;SDS011;76053;42.682;23.286;2024-01-30T16:32:36;687.15;;;567.33;;
50341;SDS011;76053;42.682;23.286;2024-01-30T16:35:37;352.35;;;277.15;;
50341;SDS011;76053;42.682;23.286;2024-01-30T16:38:37;44.65;;;32.40;;
50341;SDS011;76053;42.682;23.286;2024-01-30T16:41:37;15.32;;;11.20;;
50341;SDS011;76053;42.682;23.286;2024-01-30T16:44:38;11.80;;;9.00;;
50341;SDS011;76053;42.682;23.286;2024-01-30T16:47:39;8.70;;;7.68;;
50341;SDS011;76053;42.682;23.286;2024-01-30T16:50:39;8.57;;;7.68;;
50341;SDS011;76053;42.682;23.286;2024-01-30T16:53:40;10.88;;;8.15;;
50341;SDS011;76053;42.682;23.286;2024-01-30T16:56:40;10.73;;;7.28;;
50341;SDS011;76053;42.682;23.286;2024-01-30T16:59:47;9.60;;;6.20;;
50341;SDS011;76053;42.682;23.286;2024-01-30T17:02:48;8.88;;;6.22;;
50341;SDS011;76053;42.682;23.286;2024-01-30T17:05:48;18.27;;;9.48;;
50341;SDS011;76053;42.682;23.286;2024-01-30T17:08:54;19.48;;;8.48;;
50341;SDS011;76053;42.682;23.286;2024-01-30T17:11:55;14.30;;;7.72;;
50341;SDS011;76053;42.682;23.286;2024-01-30T17:14:56;12.05;;;7.72;;
50341;SDS011;76053;42.682;23.286;2024-01-30T17:17:56;10.90;;;7.10;;
50341;SDS011;76053;42.682;23.286;2024-01-30T17:20:57;9.05;;;6.28;;
50341;SDS011;76053;42.682;23.286;2024-01-30T17:23:57;12.43;;;7.22;;
50341;SDS011;76053;42.682;23.286;2024-01-30T17:26:58;10.05;;;5.45;;
50341;SDS011;76053;42.682;23.286;2024-01-30T17:29:58;12.60;;;5.78;;